sensor_id;sensor_type;location;lat;lon;timestamp;P1;durP1;ratioP1;P2;durP2;ratioP2
65863;SDS011;52639;51.180;20.460;2023-06-10T04:57:23;13.02;;;10.75;;
65863;SDS011;52639;51.180;20.460;2023-06-10T05:39:05;27.70;;;24.90;;
65863;SDS011;52639;51.180;20.460;2023-06-10T05:43:08;37.88;;;33.92;;
65863;SDS011;52639;51.180;20.460;2023-06-10T05:47:15;10.02;;;8.75;;
65863;SDS011;52639;51.180;20.460;2023-06-10T05:51:18;11.65;;;9.25;;
65863;SDS011;52639;51.180;20.460;2023-06-10T05:55:22;11.73;;;8.43;;
65863;SDS011;52639;51.180;20.460;2023-06-10T05:59:25;13.20;;;10.25;;
65863;SDS011;52639;51.180;20.460;2023-06-10T06:03:28;12.77;;;10.18;;
65863;SDS011;52639;51.180;20.460;2023-06-10T06:07:32;11.77;;;9.02;;
65863;SDS011;52639;51.180;20.460;2023-06-10T06:11:37;12.05;;;9.23;;
65863;SDS011;52639;51.180;20.460;2023-06-10T06:15:41;12.75;;;9.15;;
65863;SDS011;52639;51.180;20.460;2023-06-10T06:19:44;12.50;;;9.27;;
65863;SDS011;52639;51.180;20.460;2023-06-10T06:23:48;10.57;;;8.38;;
65863;SDS011;52639;51.180;20.460;2023-06-10T06:27:53;9.70;;;8.02;;
65863;SDS011;52639;51.180;20.460;2023-06-10T06:31:56;17.48;;;9.48;;
65863;SDS011;52639;51.180;20.460;2023-06-10T06:36:00;11.13;;;7.78;;
65863;SDS011;52639;51.180;20.460;2023-06-10T06:40:05;10.25;;;8.57;;
65863;SDS011;52639;51.180;20.460;2023-06-10T06:44:11;16.38;;;9.95;;
65863;SDS011;52639;51.180;20.460;2023-06-10T06:48:14;10.05;;;8.18;;
65863;SDS011;52639;51.180;20.460;2023-06-10T06:52:17;10.10;;;8.05;;
65863;SDS011;52639;51.180;20.460;2023-06-10T06:56:21;17.40;;;10.73;;
65863;SDS011;52639;51.180;20.460;2023-06-10T07:00:26;15.18;;;9.50;;
65863;SDS011;52639;51.180;20.460;2023-06-10T07:04:30;21.27;;;11.50;;
65863;SDS011;52639;51.180;20.460;2023-06-10T07:08:33;15.40;;;9.63;;
65863;SDS011;52639;51.180;20.460;2023-06-10T07:12:36;14.05;;;8.75;;
65863;SDS011;52639;51.180;20.460;2023-06-10T07:16:41;9.95;;;7.35;;
65863;SDS011;52639;51.180;20.460;2023-06-10T07:20:46;9.70;;;7.95;;
65863;SDS011;52639;51.180;20.460;2023-06-10T07:24:50;39.97;;;18.77;;
65863;SDS011;52639;51.180;20.460;2023-06-10T07:28:55;10.43;;;7.38;;
65863;SDS011;52639;51.180;20.460;2023-06-10T07:33:00;12.27;;;8.48;;
65863;SDS011;52639;51.180;20.460;2023-06-10T07:37:04;12.70;;;8.23;;
65863;SDS011;52639;51.180;20.460;2023-06-10T07:41:08;9.93;;;6.95;;
65863;SDS011;52639;51.180;20.460;2023-06-10T07:45:29;11.93;;;8.30;;
65863;SDS011;52639;51.180;20.460;2023-06-10T07:49:48;11.30;;;7.82;;
65863;SDS011;52639;51.180;20.460;2023-06-10T07:53:51;10.93;;;6.63;;
65863;SDS011;52639;51.180;20.460;2023-06-10T07:57:54;13.60;;;8.43;;
65863;SDS011;52639;51.180;20.460;2023-06-10T08:01:58;11.80;;;7.30;;
65863;SDS011;52639;51.180;20.460;2023-06-10T08:06:03;8.02;;;6.50;;
65863;SDS011;52639;51.180;20.460;2023-06-10T08:10:07;8.30;;;7.00;;
65863;SDS011;52639;51.180;20.460;2023-06-10T08:14:13;12.85;;;7.32;;
65863;SDS011;52639;51.180;20.460;2023-06-10T08:18:16;12.50;;;7.55;;
65863;SDS011;52639;51.180;20.460;2023-06-10T08:22:20;8.38;;;6.50;;
65863;SDS011;52639;51.180;20.460;2023-06-10T08:26:27;7.93;;;5.95;;
65863;SDS011;52639;51.180;20.460;2023-06-10T08:30:33;9.00;;;6.43;;
65863;SDS011;52639;51.180;20.460;2023-06-10T08:34:36;6.85;;;5.05;;
65863;SDS011;52639;51.180;20.460;2023-06-10T08:38:51;10.20;;;5.82;;
65863;SDS011;52639;51.180;20.460;2023-06-10T08:42:58;10.05;;;4.57;;
65863;SDS011;52639;51.180;20.460;2023-06-10T08:47:28;8.55;;;5.75;;
65863;SDS011;52639;51.180;20.460;2023-06-10T08:51:35;7.25;;;4.65;;
65863;SDS011;52639;51.180;20.460;2023-06-10T08:55:50;8.20;;;5.03;;
65863;SDS011;52639;51.180;20.460;2023-06-10T08:59:56;7.20;;;4.78;;
65863;SDS011;52639;51.180;20.460;2023-06-10T09:04:11;6.03;;;4.60;;
65863;SDS011;52639;51.180;20.460;2023-06-10T09:08:23;8.10;;;4.72;;
65863;SDS011;52639;51.180;20.460;2023-06-10T09:12:28;8.05;;;5.18;;
65863;SDS011;52639;51.180;20.460;2023-06-10T09:16:34;6.38;;;4.80;;
65863;SDS011;52639;51.180;20.460;2023-06-10T09:20:44;16.17;;;9.43;;
65863;SDS011;52639;51.180;20.460;2023-06-10T09:24:50;8.00;;;4.95;;
65863;SDS011;52639;51.180;20.460;2023-06-10T09:28:57;9.85;;;5.38;;
65863;SDS011;52639;51.180;20.460;2023-06-10T09:33:09;6.82;;;5.70;;
65863;SDS011;52639;51.180;20.460;2023-06-10T09:37:19;6.70;;;5.53;;
65863;SDS011;52639;51.180;20.460;2023-06-10T09:41:32;7.50;;;5.35;;
65863;SDS011;52639;51.180;20.460;2023-06-10T09:45:37;8.70;;;5.72;;
65863;SDS011;52639;51.180;20.460;2023-06-10T09:49:45;8.20;;;6.43;;
65863;SDS011;52639;51.180;20.460;2023-06-10T09:53:48;7.25;;;6.15;;
65863;SDS011;52639;51.180;20.460;2023-06-10T09:57:58;8.13;;;6.10;;
65863;SDS011;52639;51.180;20.460;2023-06-10T10:02:07;7.77;;;5.83;;
65863;SDS011;52639;51.180;20.460;2023-06-10T10:06:16;7.53;;;5.90;;
65863;SDS011;52639;51.180;20.460;2023-06-10T10:10:20;7.63;;;5.28;;
65863;SDS011;52639;51.180;20.460;2023-06-10T10:14:23;8.00;;;6.05;;
65863;SDS011;52639;51.180;20.460;2023-06-10T10:22:37;8.40;;;6.18;;
65863;SDS011;52639;51.180;20.460;2023-06-10T10:26:47;6.97;;;5.45;;
65863;SDS011;52639;51.180;20.460;2023-06-10T10:30:57;7.03;;;5.18;;
65863;SDS011;52639;51.180;20.460;2023-06-10T10:35:09;8.98;;;6.18;;
65863;SDS011;52639;51.180;20.460;2023-06-10T10:39:20;8.30;;;6.90;;
65863;SDS011;52639;51.180;20.460;2023-06-10T10:43:26;7.00;;;6.13;;
65863;SDS011;52639;51.180;20.460;2023-06-10T10:47:31;19.35;;;14.88;;
65863;SDS011;52639;51.180;20.460;2023-06-10T10:51:38;8.27;;;5.95;;
65863;SDS011;52639;51.180;20.460;2023-06-10T10:55:58;13.60;;;9.45;;
65863;SDS011;52639;51.180;20.460;2023-06-10T11:00:02;9.05;;;6.60;;
65863;SDS011;52639;51.180;20.460;2023-06-10T11:04:06;9.50;;;6.45;;
65863;SDS011;52639;51.180;20.460;2023-06-10T11:08:11;9.27;;;6.35;;
65863;SDS011;52639;51.180;20.460;2023-06-10T11:12:18;34.88;;;25.10;;
65863;SDS011;52639;51.180;20.460;2023-06-10T11:16:28;13.00;;;10.52;;
65863;SDS011;52639;51.180;20.460;2023-06-10T11:20:41;16.20;;;11.63;;
65863;SDS011;52639;51.180;20.460;2023-06-10T11:24:53;8.10;;;6.82;;
65863;SDS011;52639;51.180;20.460;2023-06-10T11:29:03;10.27;;;6.85;;
65863;SDS011;52639;51.180;20.460;2023-06-10T11:33:16;10.30;;;8.02;;
65863;SDS011;52639;51.180;20.460;2023-06-10T11:37:19;12.43;;;6.90;;
65863;SDS011;52639;51.180;20.460;2023-06-10T11:41:25;10.13;;;6.97;;
65863;SDS011;52639;51.180;20.460;2023-06-10T11:45:29;10.10;;;8.05;;
65863;SDS011;52639;51.180;20.460;2023-06-10T11:49:34;8.02;;;6.22;;
65863;SDS011;52639;51.180;20.460;2023-06-10T11:53:38;8.75;;;5.97;;
65863;SDS011;52639;51.180;20.460;2023-06-10T11:57:42;7.30;;;5.63;;
65863;SDS011;52639;51.180;20.460;2023-06-10T12:01:45;8.45;;;5.70;;
65863;SDS011;52639;51.180;20.460;2023-06-10T12:05:55;6.75;;;5.43;;
65863;SDS011;52639;51.180;20.460;2023-06-10T12:09:59;6.38;;;5.32;;
65863;SDS011;52639;51.180;20.460;2023-06-10T12:14:03;6.22;;;4.57;;
65863;SDS011;52639;51.180;20.460;2023-06-10T12:18:08;6.05;;;4.53;;
65863;SDS011;52639;51.180;20.460;2023-06-10T12:22:17;5.93;;;4.65;;
65863;SDS011;52639;51.180;20.460;2023-06-10T12:26:21;6.85;;;4.80;;
65863;SDS011;52639;51.180;20.460;2023-06-10T12:30:38;5.95;;;3.38;;
65863;SDS011;52639;51.180;20.460;2023-06-10T12:34:41;6.13;;;3.30;;
65863;SDS011;52639;51.180;20.460;2023-06-10T12:38:44;4.82;;;3.40;;
65863;SDS011;52639;51.180;20.460;2023-06-10T12:42:53;4.50;;;3.30;;
65863;SDS011;52639;51.180;20.460;2023-06-10T12:46:58;5.15;;;3.50;;
65863;SDS011;52639;51.180;20.460;2023-06-10T12:51:01;4.90;;;3.28;;
65863;SDS011;52639;51.180;20.460;2023-06-10T12:55:09;7.32;;;3.83;;
65863;SDS011;52639;51.180;20.460;2023-06-10T12:59:17;5.45;;;3.25;;
65863;SDS011;52639;51.180;20.460;2023-06-10T13:03:30;4.10;;;2.92;;
65863;SDS011;52639;51.180;20.460;2023-06-10T13:07:33;8.80;;;3.70;;
65863;SDS011;52639;51.180;20.460;2023-06-10T13:11:37;5.78;;;3.50;;
65863;SDS011;52639;51.180;20.460;2023-06-10T13:15:45;5.47;;;3.53;;
65863;SDS011;52639;51.180;20.460;2023-06-10T13:20:06;4.75;;;3.13;;
65863;SDS011;52639;51.180;20.460;2023-06-10T13:24:15;5.35;;;3.28;;
65863;SDS011;52639;51.180;20.460;2023-06-10T13:28:24;5.93;;;3.78;;
65863;SDS011;52639;51.180;20.460;2023-06-10T13:32:26;4.60;;;3.28;;
65863;SDS011;52639;51.180;20.460;2023-06-10T13:36:32;5.93;;;3.58;;
65863;SDS011;52639;51.180;20.460;2023-06-10T13:40:36;5.35;;;3.58;;
65863;SDS011;52639;51.180;20.460;2023-06-10T13:44:44;6.15;;;3.70;;
65863;SDS011;52639;51.180;20.460;2023-06-10T13:48:48;4.55;;;3.58;;
65863;SDS011;52639;51.180;20.460;2023-06-10T13:52:55;4.05;;;3.40;;
65863;SDS011;52639;51.180;20.460;2023-06-10T13:57:09;5.90;;;4.00;;
65863;SDS011;52639;51.180;20.460;2023-06-10T14:01:14;6.15;;;3.80;;
65863;SDS011;52639;51.180;20.460;2023-06-10T14:05:19;6.95;;;3.92;;
65863;SDS011;52639;51.180;20.460;2023-06-10T14:09:23;5.70;;;3.92;;
65863;SDS011;52639;51.180;20.460;2023-06-10T14:13:28;7.65;;;4.40;;
65863;SDS011;52639;51.180;20.460;2023-06-10T14:17:31;7.22;;;5.13;;
65863;SDS011;52639;51.180;20.460;2023-06-10T14:21:37;5.60;;;3.85;;
65863;SDS011;52639;51.180;20.460;2023-06-10T14:25:41;4.63;;;3.72;;
65863;SDS011;52639;51.180;20.460;2023-06-10T14:29:44;5.60;;;3.42;;
65863;SDS011;52639;51.180;20.460;2023-06-10T14:33:48;5.57;;;3.63;;
65863;SDS011;52639;51.180;20.460;2023-06-10T14:37:51;4.57;;;3.45;;
65863;SDS011;52639;51.180;20.460;2023-06-10T14:41:55;4.85;;;3.60;;
65863;SDS011;52639;51.180;20.460;2023-06-10T14:45:58;5.88;;;3.45;;
65863;SDS011;52639;51.180;20.460;2023-06-10T14:50:01;6.70;;;3.40;;
65863;SDS011;52639;51.180;20.460;2023-06-10T14:54:04;5.50;;;3.25;;
65863;SDS011;52639;51.180;20.460;2023-06-10T14:58:08;5.20;;;2.80;;
65863;SDS011;52639;51.180;20.460;2023-06-10T15:02:11;3.63;;;2.70;;
65863;SDS011;52639;51.180;20.460;2023-06-10T15:06:15;4.40;;;3.42;;
65863;SDS011;52639;51.180;20.460;2023-06-10T15:10:23;3.78;;;2.58;;
65863;SDS011;52639;51.180;20.460;2023-06-10T15:14:33;5.68;;;3.30;;
65863;SDS011;52639;51.180;20.460;2023-06-10T15:18:39;4.70;;;3.13;;
65863;SDS011;52639;51.180;20.460;2023-06-10T15:22:42;6.70;;;3.30;;
65863;SDS011;52639;51.180;20.460;2023-06-10T15:26:46;6.93;;;3.88;;
65863;SDS011;52639;51.180;20.460;2023-06-10T15:30:51;7.78;;;4.40;;
65863;SDS011;52639;51.180;20.460;2023-06-10T15:34:54;4.88;;;3.72;;
65863;SDS011;52639;51.180;20.460;2023-06-10T15:38:58;5.55;;;3.30;;
65863;SDS011;52639;51.180;20.460;2023-06-10T15:43:04;6.57;;;3.90;;
65863;SDS011;52639;51.180;20.460;2023-06-10T15:47:08;6.55;;;3.65;;
65863;SDS011;52639;51.180;20.460;2023-06-10T15:51:11;5.22;;;3.58;;
65863;SDS011;52639;51.180;20.460;2023-06-10T15:55:14;4.90;;;3.30;;
65863;SDS011;52639;51.180;20.460;2023-06-10T15:59:17;4.45;;;3.47;;
65863;SDS011;52639;51.180;20.460;2023-06-10T16:03:21;6.00;;;3.83;;
65863;SDS011;52639;51.180;20.460;2023-06-10T16:07:29;6.20;;;3.70;;
65863;SDS011;52639;51.180;20.460;2023-06-10T16:11:34;11.23;;;5.30;;
65863;SDS011;52639;51.180;20.460;2023-06-10T16:15:40;6.30;;;4.45;;
65863;SDS011;52639;51.180;20.460;2023-06-10T16:19:49;5.60;;;3.92;;
65863;SDS011;52639;51.180;20.460;2023-06-10T16:23:54;5.40;;;3.83;;
65863;SDS011;52639;51.180;20.460;2023-06-10T16:27:57;5.22;;;4.00;;
65863;SDS011;52639;51.180;20.460;2023-06-10T16:32:02;6.45;;;4.00;;
65863;SDS011;52639;51.180;20.460;2023-06-10T16:36:08;6.95;;;3.97;;
65863;SDS011;52639;51.180;20.460;2023-06-10T16:40:12;9.57;;;7.03;;
65863;SDS011;52639;51.180;20.460;2023-06-10T16:44:16;8.23;;;7.20;;
65863;SDS011;52639;51.180;20.460;2023-06-10T16:48:21;16.70;;;15.00;;
65863;SDS011;52639;51.180;20.460;2023-06-10T16:52:26;22.02;;;19.00;;
65863;SDS011;52639;51.180;20.460;2023-06-10T16:56:30;13.85;;;12.38;;
65863;SDS011;52639;51.180;20.460;2023-06-10T17:00:35;7.82;;;6.75;;
65863;SDS011;52639;51.180;20.460;2023-06-10T17:04:42;10.32;;;7.22;;
65863;SDS011;52639;51.180;20.460;2023-06-10T17:08:53;38.17;;;19.95;;
65863;SDS011;52639;51.180;20.460;2023-06-10T17:12:58;67.68;;;26.25;;
65863;SDS011;52639;51.180;20.460;2023-06-10T17:17:02;90.40;;;36.10;;
65863;SDS011;52639;51.180;20.460;2023-06-10T17:21:10;17.48;;;9.65;;
65863;SDS011;52639;51.180;20.460;2023-06-10T17:25:15;11.50;;;7.10;;
65863;SDS011;52639;51.180;20.460;2023-06-10T17:29:21;29.25;;;14.68;;
65863;SDS011;52639;51.180;20.460;2023-06-10T17:33:26;46.35;;;21.85;;
65863;SDS011;52639;51.180;20.460;2023-06-10T17:37:29;23.52;;;17.60;;
65863;SDS011;52639;51.180;20.460;2023-06-10T17:41:39;10.90;;;7.80;;
65863;SDS011;52639;51.180;20.460;2023-06-10T17:45:42;130.50;;;48.75;;
65863;SDS011;52639;51.180;20.460;2023-06-10T17:49:53;105.53;;;39.78;;
65863;SDS011;52639;51.180;20.460;2023-06-10T17:53:59;17.60;;;11.40;;
65863;SDS011;52639;51.180;20.460;2023-06-10T17:58:04;14.15;;;8.00;;
65863;SDS011;52639;51.180;20.460;2023-06-10T18:02:10;10.73;;;7.85;;
65863;SDS011;52639;51.180;20.460;2023-06-10T18:06:16;10.18;;;8.15;;
65863;SDS011;52639;51.180;20.460;2023-06-10T18:10:19;11.45;;;7.15;;
65863;SDS011;52639;51.180;20.460;2023-06-10T18:14:24;12.43;;;7.93;;
65863;SDS011;52639;51.180;20.460;2023-06-10T18:18:30;13.00;;;7.75;;
65863;SDS011;52639;51.180;20.460;2023-06-10T18:22:33;14.75;;;10.73;;
65863;SDS011;52639;51.180;20.460;2023-06-10T18:26:36;11.73;;;7.70;;
65863;SDS011;52639;51.180;20.460;2023-06-10T18:30:43;13.68;;;9.77;;
65863;SDS011;52639;51.180;20.460;2023-06-10T18:34:50;12.45;;;8.07;;
65863;SDS011;52639;51.180;20.460;2023-06-10T18:38:53;12.82;;;7.82;;
65863;SDS011;52639;51.180;20.460;2023-06-10T18:42:59;14.88;;;8.98;;
65863;SDS011;52639;51.180;20.460;2023-06-10T18:47:05;31.20;;;18.42;;
65863;SDS011;52639;51.180;20.460;2023-06-10T18:51:10;24.30;;;15.43;;
65863;SDS011;52639;51.180;20.460;2023-06-10T18:55:15;13.38;;;9.27;;
65863;SDS011;52639;51.180;20.460;2023-06-10T18:59:20;12.50;;;9.68;;
65863;SDS011;52639;51.180;20.460;2023-06-10T19:03:25;11.75;;;8.25;;
65863;SDS011;52639;51.180;20.460;2023-06-10T19:07:29;13.57;;;8.48;;
65863;SDS011;52639;51.180;20.460;2023-06-10T19:11:33;12.75;;;8.18;;
65863;SDS011;52639;51.180;20.460;2023-06-10T19:15:36;14.27;;;8.00;;
65863;SDS011;52639;51.180;20.460;2023-06-10T19:19:41;10.95;;;8.00;;
65863;SDS011;52639;51.180;20.460;2023-06-10T19:23:46;12.48;;;8.05;;
65863;SDS011;52639;51.180;20.460;2023-06-10T19:27:53;11.70;;;8.65;;
65863;SDS011;52639;51.180;20.460;2023-06-10T19:32:02;11.20;;;8.77;;
65863;SDS011;52639;51.180;20.460;2023-06-10T19:36:07;11.20;;;8.35;;
65863;SDS011;52639;51.180;20.460;2023-06-10T19:40:12;11.30;;;8.40;;
65863;SDS011;52639;51.180;20.460;2023-06-10T19:44:15;14.27;;;9.68;;
65863;SDS011;52639;51.180;20.460;2023-06-10T19:48:19;13.43;;;10.23;;
65863;SDS011;52639;51.180;20.460;2023-06-10T19:52:27;13.57;;;10.52;;
65863;SDS011;52639;51.180;20.460;2023-06-10T19:56:36;13.83;;;10.60;;
65863;SDS011;52639;51.180;20.460;2023-06-10T20:05:16;15.43;;;11.10;;
65863;SDS011;52639;51.180;20.460;2023-06-10T20:14:00;13.65;;;10.90;;
65863;SDS011;52639;51.180;20.460;2023-06-10T20:18:16;18.50;;;11.80;;
65863;SDS011;52639;51.180;20.460;2023-06-10T20:22:27;17.08;;;11.88;;
65863;SDS011;52639;51.180;20.460;2023-06-10T20:26:53;17.67;;;12.38;;
65863;SDS011;52639;51.180;20.460;2023-06-10T20:31:25;17.35;;;12.60;;
65863;SDS011;52639;51.180;20.460;2023-06-10T20:35:40;15.95;;;11.82;;
65863;SDS011;52639;51.180;20.460;2023-06-10T20:40:17;16.42;;;11.57;;
65863;SDS011;52639;51.180;20.460;2023-06-10T20:44:34;15.15;;;12.20;;
65863;SDS011;52639;51.180;20.460;2023-06-10T20:48:40;16.80;;;12.05;;
65863;SDS011;52639;51.180;20.460;2023-06-10T20:53:11;16.77;;;12.38;;
65863;SDS011;52639;51.180;20.460;2023-06-10T20:57:40;17.27;;;11.52;;
65863;SDS011;52639;51.180;20.460;2023-06-10T21:01:46;17.88;;;13.13;;
65863;SDS011;52639;51.180;20.460;2023-06-10T21:05:48;18.85;;;13.63;;
65863;SDS011;52639;51.180;20.460;2023-06-10T21:09:51;21.70;;;14.32;;
65863;SDS011;52639;51.180;20.460;2023-06-10T21:13:55;22.05;;;15.70;;
65863;SDS011;52639;51.180;20.460;2023-06-10T21:18:02;19.20;;;13.65;;
65863;SDS011;52639;51.180;20.460;2023-06-10T21:22:09;17.42;;;12.93;;
65863;SDS011;52639;51.180;20.460;2023-06-10T21:26:14;17.38;;;12.88;;
65863;SDS011;52639;51.180;20.460;2023-06-10T21:30:18;19.50;;;13.13;;
65863;SDS011;52639;51.180;20.460;2023-06-10T21:34:24;18.45;;;13.57;;
65863;SDS011;52639;51.180;20.460;2023-06-10T21:38:27;18.67;;;13.70;;
65863;SDS011;52639;51.180;20.460;2023-06-10T21:42:30;21.58;;;14.65;;
65863;SDS011;52639;51.180;20.460;2023-06-10T21:46:33;19.75;;;13.90;;
65863;SDS011;52639;51.180;20.460;2023-06-10T21:50:38;21.25;;;14.45;;
65863;SDS011;52639;51.180;20.460;2023-06-10T21:54:43;21.08;;;15.05;;
65863;SDS011;52639;51.180;20.460;2023-06-10T21:58:47;24.05;;;15.23;;
65863;SDS011;52639;51.180;20.460;2023-06-10T22:02:52;33.25;;;18.52;;
65863;SDS011;52639;51.180;20.460;2023-06-10T22:06:56;34.60;;;19.50;;
65863;SDS011;52639;51.180;20.460;2023-06-10T22:11:00;31.90;;;19.63;;
65863;SDS011;52639;51.180;20.460;2023-06-10T22:15:03;30.55;;;17.60;;
65863;SDS011;52639;51.180;20.460;2023-06-10T22:19:07;22.30;;;15.27;;
65863;SDS011;52639;51.180;20.460;2023-06-10T22:23:17;20.50;;;15.05;;
65863;SDS011;52639;51.180;20.460;2023-06-10T22:27:21;19.83;;;14.43;;
65863;SDS011;52639;51.180;20.460;2023-06-10T22:31:26;18.35;;;13.18;;
65863;SDS011;52639;51.180;20.460;2023-06-10T22:35:30;19.10;;;14.27;;
65863;SDS011;52639;51.180;20.460;2023-06-10T22:39:34;18.63;;;14.25;;
65863;SDS011;52639;51.180;20.460;2023-06-10T22:43:37;22.92;;;15.68;;
65863;SDS011;52639;51.180;20.460;2023-06-10T22:47:40;34.83;;;18.20;;
65863;SDS011;52639;51.180;20.460;2023-06-10T22:51:44;41.38;;;21.98;;
65863;SDS011;52639;51.180;20.460;2023-06-10T22:55:49;32.58;;;20.00;;
65863;SDS011;52639;51.180;20.460;2023-06-10T22:59:54;29.33;;;18.27;;
65863;SDS011;52639;51.180;20.460;2023-06-10T23:03:57;30.25;;;19.83;;
65863;SDS011;52639;51.180;20.460;2023-06-10T23:08:01;33.25;;;20.45;;
65863;SDS011;52639;51.180;20.460;2023-06-10T23:12:07;25.58;;;17.60;;
65863;SDS011;52639;51.180;20.460;2023-06-10T23:16:11;25.15;;;16.33;;
65863;SDS011;52639;51.180;20.460;2023-06-10T23:20:14;19.88;;;15.18;;
65863;SDS011;52639;51.180;20.460;2023-06-10T23:24:21;20.75;;;15.18;;
65863;SDS011;52639;51.180;20.460;2023-06-10T23:28:31;19.45;;;14.32;;
65863;SDS011;52639;51.180;20.460;2023-06-10T23:32:34;18.73;;;13.55;;
65863;SDS011;52639;51.180;20.460;2023-06-10T23:36:37;18.92;;;14.38;;
65863;SDS011;52639;51.180;20.460;2023-06-10T23:40:41;21.98;;;15.13;;
65863;SDS011;52639;51.180;20.460;2023-06-10T23:44:48;19.83;;;15.48;;
65863;SDS011;52639;51.180;20.460;2023-06-10T23:48:51;22.13;;;15.68;;
65863;SDS011;52639;51.180;20.460;2023-06-10T23:52:54;20.75;;;14.30;;
65863;SDS011;52639;51.180;20.460;2023-06-10T23:56:58;22.95;;;15.93;;
